sensor_id;sensor_type;location;lat;lon;timestamp;P1;durP1;ratioP1;P2;durP2;ratioP2
79023;SDS011;70306;44.764;37.688;2023-08-24T00:00:02;45.30;;;9.88;;
79023;SDS011;70306;44.764;37.688;2023-08-24T00:01:07;73.10;;;10.05;;
79023;SDS011;70306;44.764;37.688;2023-08-24T00:02:30;46.30;;;7.85;;
79023;SDS011;70306;44.764;37.688;2023-08-24T00:03:32;66.40;;;8.32;;
79023;SDS011;70306;44.764;37.688;2023-08-24T00:04:33;25.88;;;7.40;;
79023;SDS011;70306;44.764;37.688;2023-08-24T00:05:35;40.78;;;8.07;;
79023;SDS011;70306;44.764;37.688;2023-08-24T00:06:41;48.53;;;7.80;;
79023;SDS011;70306;44.764;37.688;2023-08-24T00:07:42;77.95;;;10.75;;
79023;SDS011;70306;44.764;37.688;2023-08-24T00:08:45;39.33;;;6.75;;
79023;SDS011;70306;44.764;37.688;2023-08-24T00:09:48;24.40;;;6.30;;
79023;SDS011;70306;44.764;37.688;2023-08-24T00:10:50;12.38;;;4.97;;
79023;SDS011;70306;44.764;37.688;2023-08-24T00:11:52;49.85;;;7.75;;
79023;SDS011;70306;44.764;37.688;2023-08-24T00:12:54;36.72;;;5.82;;
79023;SDS011;70306;44.764;37.688;2023-08-24T00:13:55;43.20;;;6.18;;
79023;SDS011;70306;44.764;37.688;2023-08-24T00:14:57;32.38;;;5.47;;
79023;SDS011;70306;44.764;37.688;2023-08-24T00:15:59;43.42;;;5.07;;
79023;SDS011;70306;44.764;37.688;2023-08-24T00:17:00;51.47;;;6.47;;
79023;SDS011;70306;44.764;37.688;2023-08-24T00:18:02;70.03;;;6.43;;
79023;SDS011;70306;44.764;37.688;2023-08-24T00:19:08;30.25;;;5.85;;
79023;SDS011;70306;44.764;37.688;2023-08-24T00:20:09;208.68;;;15.65;;
79023;SDS011;70306;44.764;37.688;2023-08-24T00:21:14;197.88;;;15.60;;
79023;SDS011;70306;44.764;37.688;2023-08-24T00:22:18;131.77;;;10.02;;
79023;SDS011;70306;44.764;37.688;2023-08-24T00:23:19;126.07;;;9.32;;
79023;SDS011;70306;44.764;37.688;2023-08-24T00:24:21;127.82;;;9.65;;
79023;SDS011;70306;44.764;37.688;2023-08-24T00:25:23;57.53;;;6.97;;
79023;SDS011;70306;44.764;37.688;2023-08-24T00:26:25;103.28;;;10.55;;
79023;SDS011;70306;44.764;37.688;2023-08-24T00:27:27;191.60;;;14.70;;
79023;SDS011;70306;44.764;37.688;2023-08-24T00:28:28;90.70;;;7.68;;
79023;SDS011;70306;44.764;37.688;2023-08-24T00:29:30;75.50;;;7.18;;
79023;SDS011;70306;44.764;37.688;2023-08-24T00:30:31;85.40;;;8.32;;
79023;SDS011;70306;44.764;37.688;2023-08-24T00:31:33;77.97;;;8.57;;
79023;SDS011;70306;44.764;37.688;2023-08-24T00:32:35;56.65;;;6.68;;
79023;SDS011;70306;44.764;37.688;2023-08-24T00:33:37;42.83;;;5.85;;
79023;SDS011;70306;44.764;37.688;2023-08-24T00:34:39;84.22;;;9.13;;
79023;SDS011;70306;44.764;37.688;2023-08-24T00:35:40;26.10;;;5.28;;
79023;SDS011;70306;44.764;37.688;2023-08-24T00:36:42;31.98;;;6.03;;
79023;SDS011;70306;44.764;37.688;2023-08-24T00:37:44;34.05;;;6.47;;
79023;SDS011;70306;44.764;37.688;2023-08-24T00:38:45;45.25;;;5.95;;
79023;SDS011;70306;44.764;37.688;2023-08-24T00:39:51;106.28;;;10.38;;
79023;SDS011;70306;44.764;37.688;2023-08-24T00:40:53;79.75;;;7.28;;
79023;SDS011;70306;44.764;37.688;2023-08-24T00:41:55;35.25;;;5.28;;
79023;SDS011;70306;44.764;37.688;2023-08-24T00:42:57;20.02;;;4.90;;
79023;SDS011;70306;44.764;37.688;2023-08-24T00:43:59;9.82;;;3.53;;
79023;SDS011;70306;44.764;37.688;2023-08-24T00:45:21;30.48;;;4.85;;
79023;SDS011;70306;44.764;37.688;2023-08-24T00:46:23;19.63;;;4.70;;
79023;SDS011;70306;44.764;37.688;2023-08-24T00:47:28;14.60;;;4.50;;
79023;SDS011;70306;44.764;37.688;2023-08-24T00:48:30;50.72;;;7.38;;
79023;SDS011;70306;44.764;37.688;2023-08-24T00:49:32;83.60;;;7.50;;
79023;SDS011;70306;44.764;37.688;2023-08-24T00:50:34;57.28;;;6.50;;
79023;SDS011;70306;44.764;37.688;2023-08-24T00:51:36;22.35;;;4.75;;
79023;SDS011;70306;44.764;37.688;2023-08-24T00:52:40;32.47;;;4.70;;
79023;SDS011;70306;44.764;37.688;2023-08-24T00:53:42;71.55;;;7.82;;
79023;SDS011;70306;44.764;37.688;2023-08-24T00:54:44;61.90;;;6.22;;
79023;SDS011;70306;44.764;37.688;2023-08-24T00:55:46;65.55;;;8.45;;
79023;SDS011;70306;44.764;37.688;2023-08-24T00:56:47;73.53;;;7.55;;
79023;SDS011;70306;44.764;37.688;2023-08-24T00:57:49;94.15;;;8.80;;
79023;SDS011;70306;44.764;37.688;2023-08-24T00:58:51;118.38;;;10.75;;
79023;SDS011;70306;44.764;37.688;2023-08-24T00:59:55;121.72;;;9.90;;
79023;SDS011;70306;44.764;37.688;2023-08-24T01:00:58;209.75;;;13.90;;
79023;SDS011;70306;44.764;37.688;2023-08-24T01:02:00;114.20;;;10.60;;
79023;SDS011;70306;44.764;37.688;2023-08-24T01:03:04;64.45;;;6.57;;
79023;SDS011;70306;44.764;37.688;2023-08-24T01:04:06;59.95;;;7.05;;
79023;SDS011;70306;44.764;37.688;2023-08-24T01:05:08;78.70;;;7.57;;
79023;SDS011;70306;44.764;37.688;2023-08-24T01:06:10;54.53;;;7.57;;
79023;SDS011;70306;44.764;37.688;2023-08-24T01:07:12;43.83;;;5.65;;
79023;SDS011;70306;44.764;37.688;2023-08-24T01:08:14;25.90;;;5.00;;
79023;SDS011;70306;44.764;37.688;2023-08-24T01:09:16;28.42;;;5.63;;
79023;SDS011;70306;44.764;37.688;2023-08-24T01:10:18;28.45;;;6.53;;
79023;SDS011;70306;44.764;37.688;2023-08-24T01:13:07;62.80;;;6.75;;
79023;SDS011;70306;44.764;37.688;2023-08-24T01:16:47;11.80;;;5.05;;
79023;SDS011;70306;44.764;37.688;2023-08-24T01:17:52;29.98;;;5.00;;
79023;SDS011;70306;44.764;37.688;2023-08-24T01:19:02;19.55;;;4.32;;
79023;SDS011;70306;44.764;37.688;2023-08-24T01:20:08;12.98;;;4.38;;
79023;SDS011;70306;44.764;37.688;2023-08-24T01:21:11;15.23;;;5.07;;
79023;SDS011;70306;44.764;37.688;2023-08-24T01:24:35;26.33;;;5.32;;
79023;SDS011;70306;44.764;37.688;2023-08-24T01:25:43;26.55;;;4.72;;
79023;SDS011;70306;44.764;37.688;2023-08-24T01:26:52;44.85;;;5.80;;
79023;SDS011;70306;44.764;37.688;2023-08-24T01:27:56;64.05;;;6.55;;
79023;SDS011;70306;44.764;37.688;2023-08-24T01:30:03;49.97;;;6.65;;
79023;SDS011;70306;44.764;37.688;2023-08-24T01:31:06;36.75;;;5.20;;
79023;SDS011;70306;44.764;37.688;2023-08-24T01:32:11;33.97;;;5.03;;
79023;SDS011;70306;44.764;37.688;2023-08-24T01:33:13;26.13;;;5.47;;
79023;SDS011;70306;44.764;37.688;2023-08-24T01:34:15;34.72;;;5.97;;
79023;SDS011;70306;44.764;37.688;2023-08-24T01:35:16;53.50;;;5.93;;
79023;SDS011;70306;44.764;37.688;2023-08-24T01:36:18;33.15;;;4.95;;
79023;SDS011;70306;44.764;37.688;2023-08-24T01:37:20;92.20;;;7.90;;
79023;SDS011;70306;44.764;37.688;2023-08-24T01:38:22;35.75;;;6.25;;
79023;SDS011;70306;44.764;37.688;2023-08-24T01:39:28;18.70;;;4.55;;
79023;SDS011;70306;44.764;37.688;2023-08-24T01:40:45;14.57;;;3.90;;
79023;SDS011;70306;44.764;37.688;2023-08-24T01:41:54;42.28;;;6.88;;
79023;SDS011;70306;44.764;37.688;2023-08-24T01:43:04;9.50;;;4.97;;
79023;SDS011;70306;44.764;37.688;2023-08-24T01:44:08;14.15;;;4.22;;
79023;SDS011;70306;44.764;37.688;2023-08-24T01:45:13;13.68;;;4.72;;
79023;SDS011;70306;44.764;37.688;2023-08-24T01:47:19;7.85;;;4.10;;
79023;SDS011;70306;44.764;37.688;2023-08-24T01:48:22;38.92;;;5.47;;
79023;SDS011;70306;44.764;37.688;2023-08-24T01:49:25;12.05;;;5.43;;
79023;SDS011;70306;44.764;37.688;2023-08-24T01:50:29;12.20;;;3.92;;
79023;SDS011;70306;44.764;37.688;2023-08-24T01:51:31;25.58;;;4.32;;
79023;SDS011;70306;44.764;37.688;2023-08-24T01:52:34;19.42;;;5.13;;
79023;SDS011;70306;44.764;37.688;2023-08-24T01:53:38;15.73;;;5.20;;
79023;SDS011;70306;44.764;37.688;2023-08-24T01:54:41;25.90;;;5.55;;
79023;SDS011;70306;44.764;37.688;2023-08-24T01:55:45;35.80;;;5.35;;
79023;SDS011;70306;44.764;37.688;2023-08-24T01:56:47;16.75;;;4.68;;
79023;SDS011;70306;44.764;37.688;2023-08-24T01:57:48;8.38;;;4.40;;
79023;SDS011;70306;44.764;37.688;2023-08-24T01:58:50;13.27;;;4.65;;
79023;SDS011;70306;44.764;37.688;2023-08-24T01:59:52;23.08;;;4.13;;
79023;SDS011;70306;44.764;37.688;2023-08-24T02:00:54;10.52;;;4.00;;
79023;SDS011;70306;44.764;37.688;2023-08-24T02:01:55;82.32;;;9.05;;
79023;SDS011;70306;44.764;37.688;2023-08-24T02:02:57;34.30;;;5.88;;
79023;SDS011;70306;44.764;37.688;2023-08-24T02:03:59;27.10;;;4.88;;
79023;SDS011;70306;44.764;37.688;2023-08-24T02:05:01;17.67;;;4.30;;
79023;SDS011;70306;44.764;37.688;2023-08-24T02:06:04;9.90;;;3.97;;
79023;SDS011;70306;44.764;37.688;2023-08-24T02:07:07;11.98;;;4.20;;
79023;SDS011;70306;44.764;37.688;2023-08-24T02:08:09;7.78;;;4.10;;
79023;SDS011;70306;44.764;37.688;2023-08-24T02:09:11;7.40;;;3.95;;
79023;SDS011;70306;44.764;37.688;2023-08-24T02:10:13;8.68;;;4.43;;
79023;SDS011;70306;44.764;37.688;2023-08-24T02:11:14;10.88;;;3.97;;
79023;SDS011;70306;44.764;37.688;2023-08-24T02:12:16;10.43;;;4.57;;
79023;SDS011;70306;44.764;37.688;2023-08-24T02:13:17;451.65;;;27.70;;
79023;SDS011;70306;44.764;37.688;2023-08-24T02:14:19;130.95;;;10.05;;
79023;SDS011;70306;44.764;37.688;2023-08-24T02:15:21;123.85;;;10.70;;
79023;SDS011;70306;44.764;37.688;2023-08-24T02:16:23;129.60;;;10.15;;
79023;SDS011;70306;44.764;37.688;2023-08-24T02:17:26;61.05;;;7.03;;
79023;SDS011;70306;44.764;37.688;2023-08-24T02:18:28;139.18;;;9.98;;
79023;SDS011;70306;44.764;37.688;2023-08-24T02:19:30;73.50;;;7.72;;
79023;SDS011;70306;44.764;37.688;2023-08-24T02:20:40;176.50;;;12.30;;
79023;SDS011;70306;44.764;37.688;2023-08-24T02:21:42;108.70;;;8.82;;
79023;SDS011;70306;44.764;37.688;2023-08-24T02:22:45;77.10;;;9.52;;
79023;SDS011;70306;44.764;37.688;2023-08-24T02:23:47;92.78;;;7.70;;
79023;SDS011;70306;44.764;37.688;2023-08-24T02:24:49;91.85;;;8.32;;
79023;SDS011;70306;44.764;37.688;2023-08-24T02:25:51;49.92;;;4.85;;
79023;SDS011;70306;44.764;37.688;2023-08-24T02:26:53;52.30;;;5.65;;
79023;SDS011;70306;44.764;37.688;2023-08-24T02:27:55;42.63;;;5.60;;
79023;SDS011;70306;44.764;37.688;2023-08-24T02:28:57;78.85;;;8.82;;
79023;SDS011;70306;44.764;37.688;2023-08-24T02:29:59;43.75;;;5.57;;
79023;SDS011;70306;44.764;37.688;2023-08-24T02:31:04;30.67;;;4.78;;
79023;SDS011;70306;44.764;37.688;2023-08-24T02:32:06;111.85;;;9.20;;
79023;SDS011;70306;44.764;37.688;2023-08-24T02:33:08;61.70;;;7.25;;
79023;SDS011;70306;44.764;37.688;2023-08-24T02:34:09;66.28;;;7.47;;
79023;SDS011;70306;44.764;37.688;2023-08-24T02:35:14;162.50;;;12.95;;
79023;SDS011;70306;44.764;37.688;2023-08-24T02:36:17;161.07;;;10.65;;
79023;SDS011;70306;44.764;37.688;2023-08-24T02:37:18;164.23;;;12.82;;
79023;SDS011;70306;44.764;37.688;2023-08-24T02:38:20;130.50;;;10.13;;
79023;SDS011;70306;44.764;37.688;2023-08-24T02:39:21;78.55;;;7.78;;
79023;SDS011;70306;44.764;37.688;2023-08-24T02:40:23;90.10;;;8.88;;
79023;SDS011;70306;44.764;37.688;2023-08-24T02:41:26;63.75;;;6.72;;
79023;SDS011;70306;44.764;37.688;2023-08-24T02:42:30;99.07;;;8.73;;
79023;SDS011;70306;44.764;37.688;2023-08-24T02:43:33;48.95;;;7.85;;
79023;SDS011;70306;44.764;37.688;2023-08-24T02:44:35;37.45;;;4.85;;
79023;SDS011;70306;44.764;37.688;2023-08-24T02:45:38;109.00;;;11.63;;
79023;SDS011;70306;44.764;37.688;2023-08-24T02:46:39;113.00;;;9.80;;
79023;SDS011;70306;44.764;37.688;2023-08-24T02:47:43;122.60;;;9.23;;
79023;SDS011;70306;44.764;37.688;2023-08-24T02:48:45;85.10;;;8.07;;
79023;SDS011;70306;44.764;37.688;2023-08-24T02:49:46;148.23;;;12.75;;
79023;SDS011;70306;44.764;37.688;2023-08-24T02:50:48;198.23;;;13.82;;
79023;SDS011;70306;44.764;37.688;2023-08-24T02:51:49;127.53;;;10.35;;
79023;SDS011;70306;44.764;37.688;2023-08-24T02:52:51;79.72;;;8.05;;
79023;SDS011;70306;44.764;37.688;2023-08-24T02:53:53;47.75;;;6.13;;
79023;SDS011;70306;44.764;37.688;2023-08-24T02:54:55;54.38;;;6.97;;
79023;SDS011;70306;44.764;37.688;2023-08-24T02:55:57;59.70;;;6.22;;
79023;SDS011;70306;44.764;37.688;2023-08-24T02:56:59;89.82;;;8.05;;
79023;SDS011;70306;44.764;37.688;2023-08-24T02:58:00;152.88;;;12.57;;
79023;SDS011;70306;44.764;37.688;2023-08-24T02:59:02;230.57;;;16.60;;
79023;SDS011;70306;44.764;37.688;2023-08-24T03:00:04;154.32;;;14.23;;
79023;SDS011;70306;44.764;37.688;2023-08-24T03:01:07;184.80;;;12.05;;
79023;SDS011;70306;44.764;37.688;2023-08-24T03:02:09;164.05;;;12.80;;
79023;SDS011;70306;44.764;37.688;2023-08-24T03:03:11;114.97;;;10.80;;
79023;SDS011;70306;44.764;37.688;2023-08-24T03:04:12;80.55;;;8.32;;
79023;SDS011;70306;44.764;37.688;2023-08-24T03:05:14;184.82;;;13.00;;
79023;SDS011;70306;44.764;37.688;2023-08-24T03:06:16;171.45;;;13.85;;
79023;SDS011;70306;44.764;37.688;2023-08-24T03:07:18;89.30;;;8.07;;
79023;SDS011;70306;44.764;37.688;2023-08-24T03:08:19;94.13;;;8.80;;
79023;SDS011;70306;44.764;37.688;2023-08-24T03:09:21;175.25;;;12.30;;
79023;SDS011;70306;44.764;37.688;2023-08-24T03:10:23;190.80;;;13.73;;
79023;SDS011;70306;44.764;37.688;2023-08-24T03:11:25;331.80;;;22.83;;
79023;SDS011;70306;44.764;37.688;2023-08-24T03:12:26;123.53;;;10.35;;
79023;SDS011;70306;44.764;37.688;2023-08-24T03:13:28;160.02;;;15.85;;
79023;SDS011;70306;44.764;37.688;2023-08-24T03:14:31;92.70;;;9.48;;
79023;SDS011;70306;44.764;37.688;2023-08-24T03:15:34;35.85;;;6.38;;
79023;SDS011;70306;44.764;37.688;2023-08-24T03:16:39;54.75;;;7.90;;
79023;SDS011;70306;44.764;37.688;2023-08-24T03:17:41;35.95;;;5.97;;
79023;SDS011;70306;44.764;37.688;2023-08-24T03:18:42;38.28;;;5.93;;
79023;SDS011;70306;44.764;37.688;2023-08-24T03:19:44;43.60;;;6.45;;
79023;SDS011;70306;44.764;37.688;2023-08-24T03:20:46;237.80;;;18.90;;
79023;SDS011;70306;44.764;37.688;2023-08-24T03:21:50;167.05;;;12.07;;
79023;SDS011;70306;44.764;37.688;2023-08-24T03:22:52;134.55;;;10.82;;
79023;SDS011;70306;44.764;37.688;2023-08-24T03:23:54;85.10;;;8.20;;
79023;SDS011;70306;44.764;37.688;2023-08-24T03:24:56;122.85;;;11.75;;
79023;SDS011;70306;44.764;37.688;2023-08-24T03:25:58;87.30;;;7.63;;
79023;SDS011;70306;44.764;37.688;2023-08-24T03:27:00;81.00;;;8.00;;
79023;SDS011;70306;44.764;37.688;2023-08-24T03:28:02;81.63;;;8.63;;
79023;SDS011;70306;44.764;37.688;2023-08-24T03:29:04;161.15;;;11.30;;
79023;SDS011;70306;44.764;37.688;2023-08-24T03:30:07;95.70;;;8.50;;
79023;SDS011;70306;44.764;37.688;2023-08-24T03:31:09;306.10;;;20.17;;
79023;SDS011;70306;44.764;37.688;2023-08-24T03:32:11;123.78;;;9.25;;
79023;SDS011;70306;44.764;37.688;2023-08-24T03:33:13;174.05;;;14.00;;
79023;SDS011;70306;44.764;37.688;2023-08-24T03:34:15;240.20;;;17.33;;
79023;SDS011;70306;44.764;37.688;2023-08-24T03:35:17;124.25;;;10.40;;
79023;SDS011;70306;44.764;37.688;2023-08-24T03:36:19;156.75;;;15.00;;
79023;SDS011;70306;44.764;37.688;2023-08-24T03:37:21;201.52;;;14.88;;
79023;SDS011;70306;44.764;37.688;2023-08-24T03:38:22;164.88;;;11.25;;
79023;SDS011;70306;44.764;37.688;2023-08-24T03:39:25;203.05;;;15.15;;
79023;SDS011;70306;44.764;37.688;2023-08-24T03:40:27;60.00;;;7.72;;
79023;SDS011;70306;44.764;37.688;2023-08-24T03:41:29;93.80;;;8.63;;
79023;SDS011;70306;44.764;37.688;2023-08-24T03:42:30;109.50;;;8.98;;
79023;SDS011;70306;44.764;37.688;2023-08-24T03:43:33;172.52;;;14.13;;
79023;SDS011;70306;44.764;37.688;2023-08-24T03:44:35;66.55;;;8.07;;
79023;SDS011;70306;44.764;37.688;2023-08-24T03:45:37;90.85;;;7.95;;
79023;SDS011;70306;44.764;37.688;2023-08-24T03:46:39;46.15;;;5.75;;
79023;SDS011;70306;44.764;37.688;2023-08-24T03:47:41;70.40;;;8.20;;
79023;SDS011;70306;44.764;37.688;2023-08-24T03:48:43;33.67;;;5.25;;
79023;SDS011;70306;44.764;37.688;2023-08-24T03:49:46;60.33;;;7.80;;
79023;SDS011;70306;44.764;37.688;2023-08-24T03:50:48;15.60;;;5.60;;
79023;SDS011;70306;44.764;37.688;2023-08-24T03:51:49;19.98;;;5.60;;
79023;SDS011;70306;44.764;37.688;2023-08-24T03:52:52;23.00;;;4.82;;
79023;SDS011;70306;44.764;37.688;2023-08-24T03:53:56;42.55;;;6.35;;
79023;SDS011;70306;44.764;37.688;2023-08-24T03:54:58;40.72;;;6.65;;
79023;SDS011;70306;44.764;37.688;2023-08-24T03:55:59;78.68;;;10.80;;
79023;SDS011;70306;44.764;37.688;2023-08-24T03:57:01;22.65;;;7.97;;
79023;SDS011;70306;44.764;37.688;2023-08-24T03:58:03;13.50;;;5.07;;
79023;SDS011;70306;44.764;37.688;2023-08-24T03:59:05;13.05;;;5.22;;
79023;SDS011;70306;44.764;37.688;2023-08-24T04:00:07;21.75;;;4.88;;
79023;SDS011;70306;44.764;37.688;2023-08-24T04:01:15;21.42;;;5.22;;
79023;SDS011;70306;44.764;37.688;2023-08-24T04:02:17;28.52;;;5.90;;
79023;SDS011;70306;44.764;37.688;2023-08-24T04:03:18;27.88;;;6.15;;
79023;SDS011;70306;44.764;37.688;2023-08-24T04:04:20;40.33;;;5.80;;
79023;SDS011;70306;44.764;37.688;2023-08-24T04:05:22;20.77;;;4.78;;
79023;SDS011;70306;44.764;37.688;2023-08-24T04:06:23;12.23;;;4.30;;
79023;SDS011;70306;44.764;37.688;2023-08-24T04:07:25;14.70;;;4.38;;
79023;SDS011;70306;44.764;37.688;2023-08-24T04:08:26;71.63;;;20.50;;
79023;SDS011;70306;44.764;37.688;2023-08-24T04:09:28;29.45;;;6.00;;
79023;SDS011;70306;44.764;37.688;2023-08-24T04:10:30;26.08;;;4.75;;
79023;SDS011;70306;44.764;37.688;2023-08-24T04:11:33;14.05;;;4.13;;
79023;SDS011;70306;44.764;37.688;2023-08-24T04:12:34;17.52;;;4.47;;
79023;SDS011;70306;44.764;37.688;2023-08-24T04:13:36;33.03;;;4.95;;
79023;SDS011;70306;44.764;37.688;2023-08-24T04:14:38;23.90;;;5.45;;
79023;SDS011;70306;44.764;37.688;2023-08-24T04:15:39;14.30;;;5.43;;
79023;SDS011;70306;44.764;37.688;2023-08-24T04:16:41;22.75;;;5.93;;
79023;SDS011;70306;44.764;37.688;2023-08-24T04:17:43;15.13;;;4.22;;
79023;SDS011;70306;44.764;37.688;2023-08-24T04:18:44;21.20;;;6.03;;
79023;SDS011;70306;44.764;37.688;2023-08-24T04:19:46;29.05;;;5.03;;
79023;SDS011;70306;44.764;37.688;2023-08-24T04:20:48;33.30;;;5.05;;
79023;SDS011;70306;44.764;37.688;2023-08-24T04:21:49;22.13;;;5.63;;
79023;SDS011;70306;44.764;37.688;2023-08-24T04:22:51;21.27;;;5.13;;
79023;SDS011;70306;44.764;37.688;2023-08-24T04:23:53;13.93;;;4.82;;
79023;SDS011;70306;44.764;37.688;2023-08-24T04:24:55;20.63;;;4.38;;
79023;SDS011;70306;44.764;37.688;2023-08-24T04:25:56;44.28;;;7.63;;
79023;SDS011;70306;44.764;37.688;2023-08-24T04:26:58;14.60;;;5.72;;
79023;SDS011;70306;44.764;37.688;2023-08-24T04:28:00;11.15;;;4.47;;
79023;SDS011;70306;44.764;37.688;2023-08-24T04:29:02;13.65;;;5.47;;
79023;SDS011;70306;44.764;37.688;2023-08-24T04:30:03;14.95;;;5.25;;
79023;SDS011;70306;44.764;37.688;2023-08-24T04:31:06;79.32;;;9.50;;
79023;SDS011;70306;44.764;37.688;2023-08-24T04:32:08;25.40;;;5.60;;
79023;SDS011;70306;44.764;37.688;2023-08-24T04:33:09;16.70;;;5.97;;
79023;SDS011;70306;44.764;37.688;2023-08-24T04:34:11;19.95;;;5.07;;
79023;SDS011;70306;44.764;37.688;2023-08-24T04:35:13;26.65;;;5.32;;
79023;SDS011;70306;44.764;37.688;2023-08-24T04:36:14;16.73;;;5.03;;
79023;SDS011;70306;44.764;37.688;2023-08-24T04:37:16;14.95;;;4.75;;
79023;SDS011;70306;44.764;37.688;2023-08-24T04:38:18;93.55;;;11.70;;
79023;SDS011;70306;44.764;37.688;2023-08-24T04:39:20;51.33;;;7.18;;
79023;SDS011;70306;44.764;37.688;2023-08-24T04:40:22;15.43;;;4.50;;
79023;SDS011;70306;44.764;37.688;2023-08-24T04:41:24;28.05;;;6.13;;
79023;SDS011;70306;44.764;37.688;2023-08-24T04:42:26;72.43;;;7.88;;
79023;SDS011;70306;44.764;37.688;2023-08-24T04:43:27;22.42;;;6.75;;
79023;SDS011;70306;44.764;37.688;2023-08-24T04:44:29;23.23;;;5.00;;
79023;SDS011;70306;44.764;37.688;2023-08-24T04:45:30;14.40;;;5.05;;
79023;SDS011;70306;44.764;37.688;2023-08-24T04:46:32;25.67;;;6.00;;
79023;SDS011;70306;44.764;37.688;2023-08-24T04:47:33;36.22;;;6.15;;
79023;SDS011;70306;44.764;37.688;2023-08-24T04:48:35;27.80;;;5.22;;
79023;SDS011;70306;44.764;37.688;2023-08-24T04:49:37;39.08;;;6.35;;
79023;SDS011;70306;44.764;37.688;2023-08-24T04:50:38;37.47;;;6.35;;
79023;SDS011;70306;44.764;37.688;2023-08-24T04:51:40;35.63;;;5.95;;
79023;SDS011;70306;44.764;37.688;2023-08-24T04:52:42;49.45;;;6.18;;
79023;SDS011;70306;44.764;37.688;2023-08-24T04:53:43;49.10;;;7.13;;
79023;SDS011;70306;44.764;37.688;2023-08-24T04:54:45;18.17;;;5.88;;
79023;SDS011;70306;44.764;37.688;2023-08-24T04:55:47;51.40;;;10.13;;
79023;SDS011;70306;44.764;37.688;2023-08-24T04:56:49;25.50;;;6.40;;
79023;SDS011;70306;44.764;37.688;2023-08-24T04:57:50;17.55;;;4.47;;
79023;SDS011;70306;44.764;37.688;2023-08-24T04:58:55;17.10;;;5.20;;
79023;SDS011;70306;44.764;37.688;2023-08-24T05:00:01;23.73;;;4.55;;
79023;SDS011;70306;44.764;37.688;2023-08-24T05:01:06;15.43;;;5.25;;
79023;SDS011;70306;44.764;37.688;2023-08-24T05:02:07;22.63;;;5.00;;
79023;SDS011;70306;44.764;37.688;2023-08-24T05:03:09;24.50;;;4.72;;
79023;SDS011;70306;44.764;37.688;2023-08-24T05:04:11;17.63;;;4.75;;
79023;SDS011;70306;44.764;37.688;2023-08-24T05:05:13;16.45;;;4.05;;
79023;SDS011;70306;44.764;37.688;2023-08-24T05:06:15;30.50;;;5.82;;
79023;SDS011;70306;44.764;37.688;2023-08-24T05:07:16;13.77;;;4.53;;
79023;SDS011;70306;44.764;37.688;2023-08-24T05:08:18;23.27;;;5.35;;
79023;SDS011;70306;44.764;37.688;2023-08-24T05:09:20;15.45;;;5.47;;
79023;SDS011;70306;44.764;37.688;2023-08-24T05:10:21;19.40;;;4.63;;
79023;SDS011;70306;44.764;37.688;2023-08-24T05:11:23;18.55;;;4.70;;
79023;SDS011;70306;44.764;37.688;2023-08-24T05:12:29;16.02;;;4.50;;
79023;SDS011;70306;44.764;37.688;2023-08-24T05:13:31;14.50;;;4.35;;
79023;SDS011;70306;44.764;37.688;2023-08-24T05:14:33;15.77;;;4.97;;
79023;SDS011;70306;44.764;37.688;2023-08-24T05:15:35;12.35;;;4.22;;
79023;SDS011;70306;44.764;37.688;2023-08-24T05:16:37;18.00;;;4.95;;
79023;SDS011;70306;44.764;37.688;2023-08-24T05:17:38;29.63;;;5.13;;
79023;SDS011;70306;44.764;37.688;2023-08-24T05:18:43;18.65;;;4.63;;
79023;SDS011;70306;44.764;37.688;2023-08-24T05:19:45;17.23;;;4.53;;
79023;SDS011;70306;44.764;37.688;2023-08-24T05:20:46;10.85;;;4.60;;
79023;SDS011;70306;44.764;37.688;2023-08-24T05:21:48;15.95;;;4.32;;
79023;SDS011;70306;44.764;37.688;2023-08-24T05:22:49;28.10;;;4.80;;
79023;SDS011;70306;44.764;37.688;2023-08-24T05:23:51;16.15;;;5.10;;
79023;SDS011;70306;44.764;37.688;2023-08-24T05:24:53;18.55;;;3.95;;
79023;SDS011;70306;44.764;37.688;2023-08-24T05:25:56;13.27;;;4.25;;
79023;SDS011;70306;44.764;37.688;2023-08-24T05:26:58;12.25;;;3.63;;
79023;SDS011;70306;44.764;37.688;2023-08-24T05:28:00;14.45;;;5.22;;
79023;SDS011;70306;44.764;37.688;2023-08-24T05:29:01;20.63;;;6.32;;
79023;SDS011;70306;44.764;37.688;2023-08-24T05:30:03;20.23;;;5.55;;
79023;SDS011;70306;44.764;37.688;2023-08-24T05:31:06;15.88;;;4.82;;
79023;SDS011;70306;44.764;37.688;2023-08-24T05:32:08;12.60;;;4.32;;
79023;SDS011;70306;44.764;37.688;2023-08-24T05:33:09;43.35;;;8.55;;
79023;SDS011;70306;44.764;37.688;2023-08-24T05:34:11;17.63;;;5.47;;
79023;SDS011;70306;44.764;37.688;2023-08-24T05:35:12;21.48;;;4.43;;
79023;SDS011;70306;44.764;37.688;2023-08-24T05:36:14;12.82;;;4.55;;
79023;SDS011;70306;44.764;37.688;2023-08-24T05:37:16;18.83;;;5.15;;
79023;SDS011;70306;44.764;37.688;2023-08-24T05:38:18;14.15;;;4.57;;
79023;SDS011;70306;44.764;37.688;2023-08-24T05:39:19;17.48;;;4.13;;
79023;SDS011;70306;44.764;37.688;2023-08-24T05:40:21;34.35;;;6.63;;
79023;SDS011;70306;44.764;37.688;2023-08-24T05:41:22;14.70;;;5.25;;
79023;SDS011;70306;44.764;37.688;2023-08-24T05:42:24;98.47;;;15.27;;
79023;SDS011;70306;44.764;37.688;2023-08-24T05:43:26;20.15;;;4.90;;
79023;SDS011;70306;44.764;37.688;2023-08-24T05:44:27;31.13;;;12.30;;
79023;SDS011;70306;44.764;37.688;2023-08-24T05:45:29;11.48;;;4.47;;
79023;SDS011;70306;44.764;37.688;2023-08-24T05:46:30;63.63;;;7.97;;
79023;SDS011;70306;44.764;37.688;2023-08-24T05:47:33;36.33;;;6.38;;
79023;SDS011;70306;44.764;37.688;2023-08-24T05:48:35;22.25;;;4.82;;
79023;SDS011;70306;44.764;37.688;2023-08-24T05:49:36;14.70;;;4.40;;
79023;SDS011;70306;44.764;37.688;2023-08-24T05:50:42;12.73;;;5.15;;
79023;SDS011;70306;44.764;37.688;2023-08-24T05:51:44;13.55;;;4.82;;
79023;SDS011;70306;44.764;37.688;2023-08-24T05:52:46;14.30;;;4.88;;
79023;SDS011;70306;44.764;37.688;2023-08-24T05:53:49;14.05;;;4.65;;
79023;SDS011;70306;44.764;37.688;2023-08-24T05:54:56;18.27;;;6.50;;
79023;SDS011;70306;44.764;37.688;2023-08-24T05:55:58;9.48;;;4.80;;
79023;SDS011;70306;44.764;37.688;2023-08-24T05:56:59;26.90;;;5.95;;
79023;SDS011;70306;44.764;37.688;2023-08-24T05:58:01;26.65;;;5.45;;
79023;SDS011;70306;44.764;37.688;2023-08-24T05:59:03;19.30;;;6.50;;
79023;SDS011;70306;44.764;37.688;2023-08-24T06:00:05;15.98;;;4.80;;
79023;SDS011;70306;44.764;37.688;2023-08-24T06:01:13;14.10;;;4.30;;
79023;SDS011;70306;44.764;37.688;2023-08-24T06:02:15;11.15;;;4.57;;
79023;SDS011;70306;44.764;37.688;2023-08-24T06:03:16;12.70;;;5.90;;
79023;SDS011;70306;44.764;37.688;2023-08-24T06:04:18;21.45;;;6.22;;
79023;SDS011;70306;44.764;37.688;2023-08-24T06:05:19;16.67;;;5.38;;
79023;SDS011;70306;44.764;37.688;2023-08-24T06:06:21;7.68;;;4.40;;
79023;SDS011;70306;44.764;37.688;2023-08-24T06:07:23;16.30;;;5.05;;
79023;SDS011;70306;44.764;37.688;2023-08-24T06:08:25;27.55;;;5.80;;
79023;SDS011;70306;44.764;37.688;2023-08-24T06:09:26;11.68;;;4.55;;
79023;SDS011;70306;44.764;37.688;2023-08-24T06:10:28;31.70;;;6.72;;
79023;SDS011;70306;44.764;37.688;2023-08-24T06:11:34;9.65;;;4.15;;
79023;SDS011;70306;44.764;37.688;2023-08-24T06:12:36;9.25;;;4.35;;